createdAt,value
2022-12-22T00:02:45.476Z,77.48
2022-12-22T00:05:35.546Z,77.37
2022-12-22T00:08:22.215Z,77.32
2022-12-22T00:11:10.249Z,77.43
2022-12-22T00:13:58.585Z,77.38
2022-12-22T00:16:50.864Z,77.54
2022-12-22T00:19:37.802Z,77.68
2022-12-22T00:22:31.850Z,77.69
2022-12-22T00:25:18.491Z,77.61
2022-12-22T00:28:04.668Z,77.76
2022-12-22T00:30:51.162Z,77.71
2022-12-22T00:33:39.132Z,77.67
2022-12-22T00:36:30.836Z,77.82
2022-12-22T00:39:17.080Z,77.73
2022-12-22T00:42:03.489Z,77.69
2022-12-22T00:44:49.945Z,77.69
2022-12-22T00:47:49.274Z,77.57
2022-12-22T00:50:36.348Z,77.74
2022-12-22T00:53:23.874Z,77.82
2022-12-22T00:56:10.095Z,77.65
2022-12-22T00:58:57.160Z,77.70
2022-12-22T01:01:43.725Z,77.70
2022-12-22T01:04:30.244Z,77.71
2022-12-22T01:07:16.995Z,77.80
2022-12-22T01:10:09.890Z,77.84
2022-12-22T01:12:59.141Z,77.76
2022-12-22T01:15:47.465Z,77.77
2022-12-22T01:18:34.731Z,77.71
2022-12-22T01:21:22.204Z,77.96
2022-12-22T01:24:08.847Z,77.83
2022-12-22T01:26:55.067Z,77.73
2022-12-22T01:29:41.329Z,77.94
2022-12-22T01:32:33.743Z,77.86
2022-12-22T01:35:19.870Z,77.72
2022-12-22T01:38:06.246Z,77.76
2022-12-22T01:40:52.624Z,77.69
2022-12-22T01:43:45.881Z,77.76
2022-12-22T01:46:44.348Z,77.81
2022-12-22T01:49:35.648Z,77.76
2022-12-22T01:52:23.080Z,77.91
2022-12-22T01:55:10.367Z,77.87
2022-12-22T01:57:56.887Z,77.88
2022-12-22T02:00:44.406Z,77.93
2022-12-22T02:03:39.249Z,78.05
2022-12-22T02:07:04.263Z,78.02
2022-12-22T02:10:09.296Z,78.09
2022-12-22T02:13:06.970Z,77.92
2022-12-22T02:16:12.458Z,77.97
2022-12-22T02:19:20.333Z,78.06
2022-12-22T02:22:21.501Z,77.93
2022-12-22T02:25:21.687Z,77.80
2022-12-22T02:28:12.335Z,77.78
2022-12-22T02:30:59.727Z,77.96
2022-12-22T02:33:46.182Z,78.14
2022-12-22T02:36:35.812Z,78.01
2022-12-22T02:39:28.395Z,77.92
2022-12-22T02:42:45.971Z,78.00
2022-12-22T02:46:17.489Z,78.00
2022-12-22T02:49:18.924Z,78.06
2022-12-22T02:52:13.122Z,78.32
2022-12-22T02:54:59.911Z,78.28
2022-12-22T02:57:47.575Z,78.35
2022-12-22T03:00:34.299Z,78.36
2022-12-22T03:03:20.886Z,78.39
2022-12-22T03:06:07.194Z,78.40
2022-12-22T03:08:53.668Z,78.50
2022-12-22T03:11:39.871Z,78.69
2022-12-22T03:14:26.234Z,78.66
2022-12-22T03:17:12.481Z,78.75
2022-12-22T03:19:58.937Z,78.75
2022-12-22T03:22:45.355Z,78.81
2022-12-22T03:25:32.230Z,78.72
2022-12-22T03:28:05.344Z,78.74
2022-12-22T03:30:33.822Z,78.82
2022-12-22T03:33:01.660Z,78.96
2022-12-22T03:35:29.496Z,78.90
2022-12-22T03:37:57.363Z,78.88
2022-12-22T03:40:25.181Z,79.03
2022-12-22T03:43:11.478Z,79.17
2022-12-22T03:45:57.806Z,79.12
2022-12-22T03:48:25.718Z,79.13
2022-12-22T03:50:53.525Z,79.19
2022-12-22T03:53:21.377Z,79.40
2022-12-22T03:55:49.282Z,79.33
2022-12-22T03:58:17.126Z,79.32
2022-12-22T04:00:45.142Z,79.32
2022-12-22T04:03:14.310Z,79.52
2022-12-22T04:05:42.233Z,79.61
2022-12-22T04:08:10.039Z,79.72
2022-12-22T04:10:56.015Z,79.86
2022-12-22T04:13:23.812Z,79.94
2022-12-22T04:15:51.843Z,79.93
2022-12-22T04:18:19.722Z,80.04
2022-12-22T04:20:48.867Z,80.21
2022-12-22T04:23:16.707Z,80.31
2022-12-22T04:25:44.573Z,80.36
2022-12-22T04:28:12.453Z,80.55
2022-12-22T04:30:40.257Z,80.46
2022-12-22T04:33:08.126Z,80.37
2022-12-22T04:35:35.953Z,80.40
2022-12-22T04:38:03.781Z,80.49
2022-12-22T04:40:31.733Z,80.36
2022-12-22T04:42:59.590Z,80.47
2022-12-22T04:45:27.593Z,80.54
2022-12-22T04:47:55.456Z,80.42
2022-12-22T04:50:23.290Z,80.50
2022-12-22T04:52:51.018Z,80.39
2022-12-22T04:55:19.013Z,80.58
2022-12-22T04:57:46.884Z,80.47
2022-12-22T05:00:15.480Z,80.62
2022-12-22T05:02:43.426Z,80.56
2022-12-22T05:05:11.478Z,80.61
2022-12-22T05:07:39.288Z,80.67
2022-12-22T05:10:07.788Z,80.87
2022-12-22T05:12:54.175Z,80.90
2022-12-22T05:15:30.524Z,80.93
2022-12-22T05:17:59.687Z,81.07
2022-12-22T05:20:27.939Z,81.01
2022-12-22T05:22:56.035Z,81.03
2022-12-22T05:25:24.110Z,81.34
2022-12-22T05:27:52.020Z,81.20
2022-12-22T05:30:20.467Z,81.25
2022-12-22T05:32:48.335Z,81.27
2022-12-22T05:35:16.473Z,81.40
2022-12-22T05:37:44.361Z,81.37
2022-12-22T05:40:12.825Z,81.44
2022-12-22T05:42:40.700Z,81.40
2022-12-22T05:45:15.584Z,81.41
2022-12-22T05:47:45.129Z,81.41
2022-12-22T05:50:15.134Z,81.46
2022-12-22T05:52:44.700Z,81.45
2022-12-22T05:55:14.094Z,81.39
2022-12-22T05:57:42.181Z,81.44
2022-12-22T06:00:14.199Z,81.48
2022-12-22T06:02:43.599Z,81.58
2022-12-22T06:05:13.274Z,81.38
2022-12-22T06:07:41.746Z,81.56
2022-12-22T06:10:12.699Z,81.41
2022-12-22T06:12:42.226Z,81.44
2022-12-22T06:15:13.171Z,81.20
2022-12-22T06:17:44.902Z,81.25
2022-12-22T06:20:14.044Z,81.22
2022-12-22T06:22:41.980Z,81.29
2022-12-22T06:25:17.234Z,81.16
2022-12-22T06:27:47.229Z,81.22
2022-12-22T06:30:16.357Z,81.19
2022-12-22T06:32:44.346Z,81.28
2022-12-22T06:35:12.245Z,81.19
2022-12-22T06:37:40.602Z,81.06
2022-12-22T06:40:09.820Z,81.11
2022-12-22T06:42:58.566Z,81.08
2022-12-22T06:45:30.126Z,81.23
2022-12-22T06:47:58.059Z,81.25
2022-12-22T06:50:25.944Z,81.23
2022-12-22T06:52:53.840Z,81.20
2022-12-22T06:55:22.186Z,81.09
2022-12-22T06:57:50.040Z,81.11
2022-12-22T07:00:18.246Z,81.00
2022-12-22T07:02:46.326Z,81.05
2022-12-22T07:05:15.672Z,80.93
2022-12-22T07:07:43.667Z,80.96
2022-12-22T07:10:12.530Z,81.09
2022-12-22T07:12:40.535Z,81.26
2022-12-22T07:15:09.531Z,81.97
2022-12-22T07:17:37.525Z,81.41
2022-12-22T07:20:05.739Z,81.20
2022-12-22T07:22:33.601Z,81.09
2022-12-22T07:25:01.439Z,81.08
2022-12-22T07:27:29.349Z,81.21
2022-12-22T07:29:57.212Z,81.04
2022-12-22T07:32:25.000Z,81.03
2022-12-22T07:34:52.889Z,81.09
2022-12-22T07:37:20.719Z,81.23
2022-12-22T07:39:48.573Z,81.21
2022-12-22T07:42:35.160Z,81.14
2022-12-22T07:45:03.043Z,81.15
2022-12-22T07:47:35.194Z,81.52
2022-12-22T07:50:23.253Z,82.42
2022-12-22T07:52:52.893Z,81.40
2022-12-22T07:55:21.122Z,81.69
2022-12-22T07:57:49.231Z,81.54
2022-12-22T08:00:18.033Z,81.52
2022-12-22T08:02:51.048Z,81.06
2022-12-22T08:05:19.805Z,81.03
2022-12-22T08:07:52.366Z,80.81
2022-12-22T08:10:20.819Z,80.80
2022-12-22T08:12:48.689Z,80.78
2022-12-22T08:15:16.757Z,80.78
2022-12-22T08:17:44.602Z,80.84
2022-12-22T08:20:12.507Z,80.78
2022-12-22T08:22:40.403Z,80.69
2022-12-22T08:25:08.703Z,80.56
2022-12-22T08:27:42.571Z,80.64
2022-12-22T08:30:11.253Z,80.85
2022-12-22T08:32:40.605Z,81.28
2022-12-22T08:35:09.711Z,81.41
2022-12-22T08:37:42.974Z,81.20
2022-12-22T08:40:15.158Z,81.06
2022-12-22T08:42:43.199Z,81.79
2022-12-22T08:45:11.460Z,81.42
2022-12-22T08:47:39.293Z,81.14
2022-12-22T08:50:07.777Z,80.90
2022-12-22T08:52:35.647Z,79.94
2022-12-22T08:55:03.709Z,79.60
2022-12-22T08:57:31.581Z,79.47
2022-12-22T08:59:59.804Z,79.62
2022-12-22T09:02:27.739Z,79.61
2022-12-22T09:04:55.637Z,79.56
2022-12-22T09:07:23.466Z,79.58
2022-12-22T09:09:51.424Z,79.61
2022-12-22T09:12:19.223Z,79.68
2022-12-22T09:14:47.059Z,79.59
2022-12-22T09:17:15.232Z,79.53
2022-12-22T09:19:43.149Z,79.56
2022-12-22T09:22:11.501Z,79.43
2022-12-22T09:24:39.344Z,79.39
2022-12-22T09:27:09.145Z,79.36
2022-12-22T09:29:39.765Z,79.35
2022-12-22T09:32:07.632Z,79.35
2022-12-22T09:34:35.527Z,79.36
2022-12-22T09:37:03.471Z,79.35
2022-12-22T09:39:31.345Z,79.30
2022-12-22T09:41:59.436Z,79.34
2022-12-22T09:44:34.613Z,79.16
2022-12-22T09:47:10.328Z,79.19
2022-12-22T09:49:38.306Z,79.11
2022-12-22T09:52:18.737Z,79.24
2022-12-22T09:54:46.601Z,79.20
2022-12-22T09:57:14.469Z,79.16
2022-12-22T09:59:42.293Z,79.16
2022-12-22T10:02:24.612Z,79.16
2022-12-22T10:05:17.919Z,79.12
2022-12-22T10:07:45.914Z,79.06
2022-12-22T10:10:27.429Z,79.15
2022-12-22T10:12:57.481Z,79.10
2022-12-22T10:15:26.147Z,79.09
2022-12-22T10:18:10.318Z,79.13
2022-12-22T10:20:39.897Z,79.06
2022-12-22T10:23:18.631Z,79.04
2022-12-22T10:28:59.388Z,79.02
2022-12-22T10:31:35.041Z,78.84
2022-12-22T10:34:17.145Z,78.72
2022-12-22T10:36:50.259Z,78.70
2022-12-22T10:39:36.309Z,78.61
2022-12-22T10:42:13.394Z,78.60
2022-12-22T10:44:47.804Z,78.41
2022-12-22T10:47:24.149Z,78.45
2022-12-22T10:52:30.626Z,78.41
2022-12-22T10:55:21.814Z,78.39
2022-12-22T10:57:50.308Z,78.26
2022-12-22T11:00:28.799Z,78.19
2022-12-22T11:02:59.404Z,78.19
2022-12-22T11:05:28.121Z,78.18
2022-12-22T11:07:57.551Z,78.20
2022-12-22T11:10:47.796Z,78.17
2022-12-22T11:13:15.577Z,78.15
2022-12-22T11:16:04.203Z,78.16
2022-12-22T11:19:29.475Z,78.03
2022-12-22T11:22:00.923Z,77.93
2022-12-22T11:24:59.892Z,78.08
2022-12-22T11:28:01.949Z,78.05
2022-12-22T11:30:43.822Z,77.94
2022-12-22T11:33:21.157Z,77.98
2022-12-22T11:35:57.571Z,77.89
2022-12-22T11:38:33.010Z,77.91
2022-12-22T11:41:14.350Z,77.77
2022-12-22T11:44:28.057Z,77.94
2022-12-22T11:47:07.187Z,77.81
2022-12-22T11:50:59.572Z,77.82
2022-12-22T11:53:12.352Z,77.53
2022-12-22T11:56:15.474Z,77.42
2022-12-22T11:59:12.499Z,77.35
2022-12-22T12:01:59.157Z,77.32
2022-12-22T12:04:50.286Z,77.25
2022-12-22T12:07:28.004Z,77.39
2022-12-22T12:10:22.385Z,77.45
2022-12-22T12:13:08.608Z,77.28
2022-12-22T12:15:44.411Z,77.09
2022-12-22T12:18:27.333Z,76.86
2022-12-22T12:21:04.527Z,76.94
2022-12-22T12:23:54.772Z,76.89
2022-12-22T12:26:51.527Z,76.90
2022-12-22T12:29:37.371Z,76.87
2022-12-22T12:32:17.036Z,76.71
2022-12-22T12:34:54.209Z,76.36
2022-12-22T12:37:29.641Z,76.31
2022-12-22T12:40:08.058Z,76.29
2022-12-22T12:42:45.416Z,76.20
2022-12-22T12:45:31.853Z,76.11
2022-12-22T12:48:22.194Z,76.17
2022-12-22T12:50:57.871Z,76.05
2022-12-22T12:53:27.870Z,76.26
2022-12-22T12:56:06.158Z,76.26
2022-12-22T12:58:40.055Z,76.14
2022-12-22T13:01:32.992Z,75.99
2022-12-22T13:04:04.243Z,75.75
2022-12-22T13:06:53.553Z,75.78
2022-12-22T13:09:50.036Z,75.77
2022-12-22T13:12:48.380Z,75.56
2022-12-22T13:15:31.489Z,75.64
2022-12-22T13:18:00.891Z,75.52
2022-12-22T13:20:34.814Z,75.44
2022-12-22T13:23:10.241Z,75.41
2022-12-22T13:25:48.603Z,75.30
2022-12-22T13:28:19.146Z,75.32
2022-12-22T13:31:28.674Z,75.35
2022-12-22T13:34:24.936Z,75.45
2022-12-22T13:36:54.557Z,75.44
2022-12-22T13:39:22.334Z,75.46
2022-12-22T13:41:51.494Z,75.34
2022-12-22T13:44:32.847Z,75.22
2022-12-22T13:47:07.479Z,75.28
2022-12-22T13:50:07.293Z,75.22
2022-12-22T13:52:23.933Z,75.29
2022-12-22T13:54:51.852Z,75.23
2022-12-22T13:57:22.239Z,75.21
2022-12-22T13:59:51.596Z,75.37
2022-12-22T14:02:21.368Z,75.28
2022-12-22T14:05:10.605Z,75.27
2022-12-22T14:07:39.107Z,75.28
2022-12-22T14:10:08.421Z,75.50
2022-12-22T14:12:46.989Z,75.57
2022-12-22T14:15:18.806Z,75.69
2022-12-22T14:17:53.711Z,75.75
2022-12-22T14:20:29.371Z,75.76
2022-12-22T14:23:02.757Z,75.88
2022-12-22T14:25:36.061Z,76.12
2022-12-22T14:28:07.292Z,76.26
2022-12-22T14:30:41.527Z,76.34
2022-12-22T14:33:27.584Z,76.30
2022-12-22T14:36:21.745Z,76.27
2022-12-22T14:38:55.036Z,76.27
2022-12-22T14:41:43.689Z,76.49
2022-12-22T14:44:33.185Z,76.53
2022-12-22T14:47:09.717Z,76.47
2022-12-22T14:50:20.268Z,76.59
2022-12-22T14:52:57.022Z,76.73
2022-12-22T14:55:42.155Z,76.85
2022-12-22T14:58:10.035Z,76.95
2022-12-22T15:00:46.745Z,76.93
2022-12-22T15:03:32.765Z,77.08
2022-12-22T15:06:22.566Z,77.15
2022-12-22T15:08:53.415Z,77.11
2022-12-22T15:11:24.422Z,77.13
2022-12-22T15:13:52.390Z,77.20
2022-12-22T15:16:22.492Z,77.28
2022-12-22T15:18:51.295Z,77.21
2022-12-22T15:21:20.809Z,77.26
2022-12-22T15:23:48.899Z,77.37
2022-12-22T15:26:16.687Z,77.28
2022-12-22T15:28:44.474Z,77.44
2022-12-22T15:31:15.356Z,77.61
2022-12-22T15:33:44.924Z,77.46
2022-12-22T15:36:14.397Z,77.50
2022-12-22T15:38:43.049Z,77.62
2022-12-22T15:41:10.948Z,77.80
2022-12-22T15:43:57.851Z,77.73
2022-12-22T15:46:26.567Z,77.79
2022-12-22T15:48:54.535Z,77.92
2022-12-22T15:51:27.959Z,77.91
2022-12-22T15:53:57.176Z,77.93
2022-12-22T15:56:27.214Z,77.82
2022-12-22T15:58:55.219Z,78.05
2022-12-22T16:01:23.105Z,78.03
2022-12-22T16:03:51.175Z,77.93
2022-12-22T16:06:19.664Z,78.10
2022-12-22T16:08:50.963Z,78.03
2022-12-22T16:11:19.486Z,77.88
2022-12-22T16:13:49.291Z,77.90
2022-12-22T16:16:17.678Z,77.72
2022-12-22T16:18:45.524Z,77.82
2022-12-22T16:21:17.682Z,77.81
2022-12-22T16:23:47.988Z,77.81
2022-12-22T16:26:20.052Z,77.72
2022-12-22T16:28:48.500Z,77.77
2022-12-22T16:31:23.261Z,77.74
2022-12-22T16:33:51.992Z,77.78
2022-12-22T16:36:19.925Z,77.65
2022-12-22T16:38:48.015Z,77.69
2022-12-22T16:41:23.912Z,77.73
2022-12-22T16:46:40.873Z,77.76
2022-12-22T16:49:09.370Z,77.82
2022-12-22T16:51:44.671Z,78.05
2022-12-22T16:54:15.904Z,77.92
2022-12-22T16:56:46.983Z,77.85
2022-12-22T16:59:15.122Z,78.06
2022-12-22T17:01:53.814Z,78.04
2022-12-22T17:04:26.005Z,78.14
2022-12-22T17:06:55.470Z,78.19
2022-12-22T17:09:28.087Z,78.11
2022-12-22T17:11:55.936Z,78.23
2022-12-22T17:14:37.703Z,78.21
2022-12-22T17:17:06.027Z,78.23
2022-12-22T17:19:33.860Z,78.31
2022-12-22T17:22:01.774Z,78.16
2022-12-22T17:24:29.816Z,78.17
2022-12-22T17:27:04.201Z,78.30
2022-12-22T17:29:32.183Z,78.35
2022-12-22T17:31:59.987Z,78.26
2022-12-22T17:34:27.855Z,78.36
2022-12-22T17:36:58.800Z,78.38
2022-12-22T17:39:26.729Z,78.31
2022-12-22T17:41:57.418Z,78.54
2022-12-22T17:44:27.078Z,78.46
2022-12-22T17:46:55.117Z,78.48
2022-12-22T17:49:23.044Z,78.45
2022-12-22T17:51:50.977Z,78.49
2022-12-22T17:54:25.729Z,78.54
2022-12-22T17:57:01.956Z,78.65
2022-12-22T17:59:30.905Z,78.56
2022-12-22T18:01:59.308Z,78.66
2022-12-22T18:04:27.304Z,78.69
2022-12-22T18:06:56.025Z,78.70
2022-12-22T18:09:26.367Z,78.71
2022-12-22T18:11:54.297Z,78.85
2022-12-22T18:14:23.120Z,78.71
2022-12-22T18:16:51.135Z,78.89
2022-12-22T18:19:19.440Z,78.86
2022-12-22T18:21:47.429Z,78.82
2022-12-22T18:24:17.366Z,78.89
2022-12-22T18:26:46.988Z,78.97
2022-12-22T18:29:16.116Z,78.94
2022-12-22T18:31:46.448Z,78.86
2022-12-22T18:34:15.365Z,78.98
2022-12-22T18:36:45.517Z,78.97
2022-12-22T18:39:19.104Z,78.86
2022-12-22T18:41:47.254Z,78.92
2022-12-22T18:44:19.177Z,78.88
2022-12-22T18:46:48.758Z,79.04
2022-12-22T18:49:17.113Z,79.01
2022-12-22T18:51:45.553Z,79.04
2022-12-22T18:54:36.783Z,78.97
2022-12-22T18:57:13.077Z,79.01
2022-12-22T18:59:41.951Z,79.08
2022-12-22T19:02:12.595Z,79.19
2022-12-22T19:04:41.623Z,79.29
2022-12-22T19:07:18.757Z,79.18
2022-12-22T19:09:47.612Z,79.13
2022-12-22T19:12:18.545Z,79.31
2022-12-22T19:14:51.656Z,79.27
2022-12-22T19:17:22.134Z,79.45
2022-12-22T19:19:50.132Z,79.51
2022-12-22T19:22:17.932Z,79.60
2022-12-22T19:24:46.327Z,79.59
2022-12-22T19:27:21.832Z,79.41
2022-12-22T19:29:53.825Z,79.52
2022-12-22T19:32:30.517Z,79.46
2022-12-22T19:34:58.438Z,79.37
2022-12-22T19:37:26.254Z,79.42
2022-12-22T19:39:54.085Z,79.56
2022-12-22T19:42:24.026Z,79.67
2022-12-22T19:44:52.046Z,79.73
2022-12-22T19:47:24.418Z,79.61
2022-12-22T19:49:52.749Z,79.64
2022-12-22T19:52:20.722Z,79.86
2022-12-22T19:54:48.671Z,79.87
2022-12-22T19:57:22.404Z,80.24
2022-12-22T19:59:52.636Z,80.46
2022-12-22T20:02:21.313Z,80.68
2022-12-22T20:04:50.235Z,80.93
2022-12-22T20:07:20.302Z,80.90
2022-12-22T20:09:48.317Z,81.15
2022-12-22T20:12:30.661Z,81.30
2022-12-22T20:15:07.297Z,81.46
2022-12-22T20:17:35.087Z,81.81
2022-12-22T20:20:03.081Z,82.04
2022-12-22T20:22:31.084Z,82.01
2022-12-22T20:24:59.323Z,82.19
2022-12-22T20:27:33.074Z,82.37
2022-12-22T20:30:01.247Z,82.47
2022-12-22T20:32:29.360Z,82.56
2022-12-22T20:34:57.406Z,82.71
2022-12-22T20:37:25.564Z,82.80
2022-12-22T20:39:53.403Z,82.91
2022-12-22T20:42:23.417Z,83.00
2022-12-22T20:45:02.569Z,83.19
2022-12-22T20:47:33.716Z,83.10
2022-12-22T20:50:01.705Z,83.14
2022-12-22T20:52:29.583Z,83.17
2022-12-22T20:54:57.431Z,83.02
2022-12-22T20:57:26.499Z,83.13
2022-12-22T20:59:57.055Z,83.20
2022-12-22T21:02:29.304Z,83.14
2022-12-22T21:04:57.572Z,82.95
2022-12-22T21:07:27.894Z,83.10
2022-12-22T21:09:55.945Z,82.98
2022-12-22T21:12:23.830Z,82.83
2022-12-22T21:14:51.992Z,82.84
2022-12-22T21:17:19.897Z,82.91
2022-12-22T21:19:47.781Z,82.70
2022-12-22T21:22:15.841Z,82.77
2022-12-22T21:24:44.009Z,82.60
2022-12-22T21:27:18.952Z,82.55
2022-12-22T21:29:47.263Z,82.58
2022-12-22T21:32:16.064Z,82.61
2022-12-22T21:34:43.864Z,82.62
2022-12-22T21:37:18.346Z,82.51
2022-12-22T21:39:46.225Z,82.57
2022-12-22T21:42:16.098Z,82.64
2022-12-22T21:44:46.864Z,82.68
2022-12-22T21:47:17.582Z,82.99
2022-12-22T21:49:45.460Z,83.11
2022-12-22T21:52:13.403Z,83.38
2022-12-22T21:54:41.283Z,83.40
2022-12-22T21:57:15.775Z,83.45
2022-12-22T21:59:43.875Z,83.40
2022-12-22T22:02:16.536Z,83.42
2022-12-22T22:04:50.170Z,83.24
2022-12-22T22:07:22.589Z,83.25
2022-12-22T22:09:50.460Z,83.14
2022-12-22T22:12:33.581Z,82.85
2022-12-22T22:15:01.960Z,82.92
2022-12-22T22:17:30.141Z,82.83
2022-12-22T22:19:58.051Z,82.77
2022-12-22T22:22:25.874Z,82.77
2022-12-22T22:24:53.789Z,82.88
2022-12-22T22:27:21.715Z,82.79
2022-12-22T22:29:49.585Z,82.79
2022-12-22T22:32:17.498Z,82.88
2022-12-22T22:34:45.317Z,82.87
2022-12-22T22:37:13.138Z,82.70
2022-12-22T22:39:41.048Z,82.89
2022-12-22T22:42:08.891Z,82.92
2022-12-22T22:44:36.687Z,82.70
2022-12-22T22:47:04.824Z,82.78
2022-12-22T22:49:32.874Z,82.78
2022-12-22T22:52:00.782Z,82.65
2022-12-22T22:54:28.655Z,82.70
2022-12-22T22:56:56.558Z,82.73
2022-12-22T22:59:24.402Z,82.74
2022-12-22T23:01:52.286Z,82.67
2022-12-22T23:04:20.383Z,82.74
2022-12-22T23:06:48.403Z,82.70
2022-12-22T23:09:16.297Z,82.74
2022-12-22T23:11:44.231Z,82.72
2022-12-22T23:14:12.165Z,82.73
2022-12-22T23:16:40.009Z,82.71
2022-12-22T23:19:08.038Z,82.72
2022-12-22T23:21:35.906Z,82.69
2022-12-22T23:24:04.095Z,82.63
2022-12-22T23:26:32.384Z,82.79
2022-12-22T23:29:03.600Z,82.89
2022-12-22T23:31:33.472Z,82.93
2022-12-22T23:34:01.831Z,82.83
2022-12-22T23:36:29.780Z,82.86
2022-12-22T23:38:58.113Z,82.92
2022-12-22T23:41:26.040Z,82.98
2022-12-22T23:43:54.714Z,82.87
2022-12-22T23:46:23.076Z,83.04
2022-12-22T23:48:52.757Z,83.04
2022-12-22T23:51:22.782Z,82.96
2022-12-22T23:53:50.698Z,82.88
2022-12-22T23:56:19.607Z,82.94
2022-12-22T23:58:52.552Z,82.88
